Time;durP1;ratioP1;P1;durP2;ratioP2;P2;SDS_P1;SDS_P2;PMS_P1;PMS_P2;Temp;Humidity;BMP_temperature;BMP_pressure;BME280_temperature;BME280_humidity;BME280_pressure;Samples;Min_cycle;Max_cycle;Signal;HPM_P1;HPM_P2
2023/01/09 00:02:04;;;;;;;35.50;33.43;;;5.20;93.60;;;;;;5033001;28;20184;-92
2023/01/09 00:04:30;;;;;;;37.13;35.00;;;5.20;93.50;;;;;;5033503;28;20169;-91
2023/01/09 00:06:56;;;;;;;37.67;35.33;;;5.20;93.50;;;;;;5032983;28;20231;-91
2023/01/09 00:09:23;;;;;;;36.70;34.50;;;5.20;93.50;;;;;;5033669;28;20238;-91
2023/01/09 00:11:49;;;;;;;36.07;33.97;;;5.20;93.50;;;;;;5033121;28;20206;-91
2023/01/09 00:14:15;;;;;;;34.87;32.87;;;5.20;93.40;;;;;;5033263;28;20579;-91
2023/01/09 00:16:41;;;;;;;35.20;33.20;;;5.20;93.40;;;;;;5033577;28;20638;-91
2023/01/09 00:19:07;;;;;;;34.70;32.63;;;5.10;93.30;;;;;;5033171;28;20207;-91
2023/01/09 00:21:32;;;;;;;35.90;33.80;;;5.10;93.30;;;;;;5033136;28;20181;-91
2023/01/09 00:23:58;;;;;;;35.80;33.70;;;5.00;93.20;;;;;;5034477;28;20196;-90
2023/01/09 00:26:23;;;;;;;35.00;32.70;;;5.00;93.20;;;;;;5033977;28;20215;-91
2023/01/09 00:28:50;;;;;;;34.40;32.40;;;4.90;93.20;;;;;;5034282;28;20233;-91
2023/01/09 00:31:17;;;;;;;36.07;33.97;;;4.90;93.20;;;;;;5033001;28;20180;-91
2023/01/09 00:34:00;;;;;;;35.93;33.43;;;4.80;93.20;;;;;;5033063;28;20670;-91
2023/01/09 00:36:26;;;;;;;35.67;33.47;;;4.80;93.20;;;;;;5033262;28;20211;-91
2023/01/09 00:38:51;;;;;;;36.43;34.33;;;4.80;93.30;;;;;;5032992;28;20204;-91
2023/01/09 00:41:22;;;;;;;34.20;32.20;;;4.70;93.20;;;;;;5032562;28;20212;-91
2023/01/09 00:43:52;;;;;;;33.77;31.80;;;4.70;93.30;;;;;;5034247;28;20208;-91
2023/01/09 00:46:20;;;;;;;37.30;35.07;;;4.70;93.30;;;;;;5033168;28;20165;-91
2023/01/09 00:48:47;;;;;;;36.33;34.23;;;4.80;93.50;;;;;;5033426;28;20184;-92
2023/01/09 00:51:14;;;;;;;37.47;35.07;;;4.90;93.50;;;;;;5032804;28;20220;-91
2023/01/09 00:53:41;;;;;;;36.80;34.60;;;4.90;93.60;;;;;;5032659;28;20262;-92
2023/01/09 00:56:12;;;;;;;37.00;34.53;;;4.90;93.60;;;;;;5032679;28;20221;-91
2023/01/09 00:58:38;;;;;;;35.30;33.20;;;5.00;93.70;;;;;;5032472;28;20188;-92
2023/01/09 01:01:04;;;;;;;34.37;32.30;;;5.10;93.70;;;;;;5032361;28;20555;-92
2023/01/09 01:03:29;;;;;;;35.70;33.50;;;5.10;93.70;;;;;;5038352;28;20628;-92
2023/01/09 01:08:39;;;;;;;36.27;34.17;;;5.20;93.70;;;;;;5037881;28;20190;-92
2023/01/09 01:11:11;;;;;;;36.13;33.90;;;5.10;93.70;;;;;;5035898;28;20187;-93
2023/01/09 01:13:38;;;;;;;35.70;33.50;;;5.20;93.70;;;;;;5035754;28;20287;-93
2023/01/09 01:16:08;;;;;;;34.50;32.50;;;5.10;93.70;;;;;;5035781;28;20838;-92
2023/01/09 01:18:34;;;;;;;35.83;33.70;;;5.20;93.70;;;;;;5035700;28;20655;-92
2023/01/09 01:21:00;;;;;;;34.40;32.30;;;5.10;93.60;;;;;;5035171;28;20180;-93
2023/01/09 01:23:25;;;;;;;35.20;33.07;;;5.20;93.60;;;;;;5035398;28;20215;-91
2023/01/09 01:25:51;;;;;;;34.87;32.67;;;5.20;93.60;;;;;;5034831;28;20230;-92
2023/01/09 01:28:18;;;;;;;34.40;32.33;;;5.10;93.50;;;;;;5034741;28;20227;-93
2023/01/09 01:30:43;;;;;;;36.73;34.43;;;5.10;93.60;;;;;;5036591;28;20183;-93
2023/01/09 01:33:10;;;;;;;37.50;35.30;;;5.10;93.50;;;;;;5035602;28;20291;-93
2023/01/09 01:35:36;;;;;;;37.53;35.17;;;5.10;93.50;;;;;;5035627;28;20185;-93
2023/01/09 01:38:01;;;;;;;38.47;36.27;;;5.20;93.50;;;;;;5035323;28;20291;-92
2023/01/09 01:40:28;;;;;;;36.60;34.20;;;5.20;93.50;;;;;;5033327;28;20313;-92
2023/01/09 01:42:54;;;;;;;38.03;35.67;;;5.30;93.50;;;;;;5031948;28;20205;-92
2023/01/09 01:45:25;;;;;;;36.43;34.27;;;5.20;93.50;;;;;;5032543;28;20184;-93
2023/01/09 01:48:08;;;;;;;37.77;35.40;;;5.30;93.50;;;;;;5032185;28;20172;-92
2023/01/09 01:50:36;;;;;;;36.80;34.70;;;5.20;93.40;;;;;;5032482;28;20173;-92
2023/01/09 01:53:12;;;;;;;37.37;35.07;;;5.30;93.40;;;;;;5032515;28;20196;-89
2023/01/09 01:55:58;;;;;;;35.83;33.50;;;5.20;93.40;;;;;;5035980;28;20553;-92
2023/01/09 01:58:25;;;;;;;36.60;34.40;;;5.20;93.30;;;;;;5032166;28;20192;-92
2023/01/09 02:00:51;;;;;;;37.20;34.87;;;5.20;93.40;;;;;;5034080;28;20177;-92
2023/01/09 02:03:19;;;;;;;38.37;36.07;;;5.30;93.40;;;;;;5035477;28;20212;-92
2023/01/09 02:05:44;;;;;;;37.27;35.07;;;5.30;93.40;;;;;;5036452;28;20181;-92
2023/01/09 02:08:11;;;;;;;38.67;36.37;;;5.40;93.40;;;;;;5035426;28;20187;-91
2023/01/09 02:10:38;;;;;;;38.87;36.53;;;5.40;93.30;;;;;;5036847;28;20176;-92
2023/01/09 02:13:06;;;;;;;39.37;36.93;;;5.50;93.30;;;;;;5035266;28;20204;-94
2023/01/09 02:16:03;;;;;;;40.37;37.77;;;5.50;93.30;;;;;;5036619;28;20176;-92
2023/01/09 02:18:47;;;;;;;40.60;38.10;;;5.50;93.30;;;;;;5012953;28;20212;-92
2023/01/09 02:21:26;;;;;;;39.17;36.77;;;5.60;93.30;;;;;;5035365;28;20169;-92
2023/01/09 02:24:07;;;;;;;41.10;38.13;;;5.50;93.30;;;;;;5035583;28;20223;-92
2023/01/09 02:27:06;;;;;;;39.77;37.37;;;5.60;93.30;;;;;;5036061;28;20251;-92
2023/01/09 02:29:50;;;;;;;38.67;36.33;;;5.60;93.20;;;;;;5032237;28;20189;-93
2023/01/09 02:32:21;;;;;;;37.53;34.33;;;5.70;93.30;;;;;;5036124;28;20208;-92
2023/01/09 02:35:10;;;;;;;38.90;36.20;;;5.70;93.20;;;;;;5035216;28;20623;-92
2023/01/09 02:37:44;;;;;;;38.67;36.37;;;5.70;93.20;;;;;;5034689;28;20187;-93
2023/01/09 02:40:32;;;;;;;38.30;35.80;;;5.70;93.20;;;;;;5034641;28;20176;-92
2023/01/09 02:42:59;;;;;;;38.37;35.97;;;5.70;93.20;;;;;;5034726;28;20200;-92
2023/01/09 02:45:24;;;;;;;38.20;35.80;;;5.80;93.30;;;;;;5034888;28;20662;-93
2023/01/09 02:47:50;;;;;;;39.20;36.87;;;5.80;93.30;;;;;;5036130;28;20184;-92
2023/01/09 02:50:45;;;;;;;39.73;37.23;;;5.80;93.20;;;;;;5034720;28;20177;-92
2023/01/09 02:53:16;;;;;;;40.13;37.37;;;5.80;93.20;;;;;;5034743;28;20271;-92
2023/01/09 02:56:02;;;;;;;40.07;37.60;;;5.90;93.30;;;;;;5034558;28;20192;-92
2023/01/09 02:58:49;;;;;;;40.10;37.60;;;5.80;93.20;;;;;;5034480;28;20185;-92
2023/01/09 03:01:25;;;;;;;39.70;37.20;;;5.90;93.30;;;;;;5034365;28;20672;-93
2023/01/09 03:04:15;;;;;;;41.70;39.10;;;5.90;93.30;;;;;;5035628;28;20219;-92
2023/01/09 03:06:46;;;;;;;39.77;37.47;;;5.90;93.30;;;;;;5034276;28;20161;-93
2023/01/09 03:09:16;;;;;;;42.33;39.37;;;5.90;93.30;;;;;;5035040;28;20169;-93
2023/01/09 03:12:03;;;;;;;42.27;39.53;;;6.00;93.40;;;;;;5033137;28;20172;-92
2023/01/09 03:14:31;;;;;;;44.70;42.00;;;6.00;93.40;;;;;;5035639;28;20206;-92
2023/01/09 03:17:02;;;;;;;44.37;41.57;;;6.00;93.50;;;;;;5034480;28;20652;-92
2023/01/09 03:19:30;;;;;;;44.73;41.63;;;6.10;93.50;;;;;;5033945;28;20193;-92
2023/01/09 03:21:57;;;;;;;43.67;41.10;;;6.20;93.50;;;;;;5034031;28;20180;-92
2023/01/09 03:24:23;;;;;;;43.63;40.87;;;6.20;93.50;;;;;;5033855;28;20228;-92
2023/01/09 03:26:49;;;;;;;44.73;41.93;;;6.30;93.50;;;;;;5033906;28;20269;-93
2023/01/09 03:29:14;;;;;;;45.37;42.67;;;6.30;93.50;;;;;;5034340;28;20185;-92
2023/01/09 03:31:40;;;;;;;46.50;43.73;;;6.30;93.60;;;;;;5033791;28;20543;-92
2023/01/09 03:34:05;;;;;;;46.57;43.63;;;6.30;93.70;;;;;;5033960;28;20196;-92
2023/01/09 03:36:31;;;;;;;45.70;42.97;;;6.30;93.70;;;;;;5034037;28;20230;-92
2023/01/09 03:38:57;;;;;;;49.20;45.60;;;6.30;93.80;;;;;;5033670;28;20204;-92
2023/01/09 03:41:22;;;;;;;44.03;41.23;;;6.30;93.80;;;;;;5033837;28;20180;-92
2023/01/09 03:43:48;;;;;;;45.80;43.10;;;6.30;93.80;;;;;;5033639;28;20275;-92
2023/01/09 03:46:15;;;;;;;51.33;48.03;;;6.30;93.90;;;;;;5033956;28;20655;-92
2023/01/09 03:48:40;;;;;;;51.67;48.27;;;6.30;94.00;;;;;;5035164;28;20181;-93
2023/01/09 03:51:06;;;;;;;52.53;49.33;;;6.30;94.10;;;;;;5034532;28;20180;-92
2023/01/09 03:53:31;;;;;;;51.90;48.80;;;6.30;94.10;;;;;;5033996;28;20334;-92
2023/01/09 03:55:57;;;;;;;56.50;53.00;;;6.30;94.10;;;;;;5034166;28;20200;-92
2023/01/09 03:58:24;;;;;;;55.23;51.73;;;6.30;94.20;;;;;;5034976;28;20204;-92
2023/01/09 04:00:51;;;;;;;56.33;52.83;;;6.30;94.20;;;;;;5033514;28;20181;-91
2023/01/09 04:03:18;;;;;;;56.53;53.03;;;6.30;94.30;;;;;;5033595;28;20212;-92
2023/01/09 04:05:45;;;;;;;58.70;55.10;;;6.20;94.30;;;;;;5033584;28;20177;-92
2023/01/09 04:08:12;;;;;;;58.50;54.83;;;6.30;94.30;;;;;;5033891;28;20657;-93
2023/01/09 04:10:37;;;;;;;62.03;58.03;;;6.30;94.40;;;;;;5033846;28;20189;-93
2023/01/09 04:13:03;;;;;;;65.00;61.00;;;6.20;94.40;;;;;;5035886;28;20267;-92
2023/01/09 04:15:28;;;;;;;65.87;61.83;;;6.30;94.50;;;;;;5036214;28;20172;-92
2023/01/09 04:17:54;;;;;;;67.33;63.20;;;6.30;94.50;;;;;;5034862;28;20255;-92
2023/01/09 04:20:19;;;;;;;70.23;65.90;;;6.30;94.50;;;;;;5035623;28;20177;-92
2023/01/09 04:22:45;;;;;;;68.23;64.13;;;6.30;94.60;;;;;;5033733;28;20201;-93
2023/01/09 04:25:10;;;;;;;74.97;70.00;;;6.30;94.60;;;;;;5033844;28;20537;-92
2023/01/09 04:27:36;;;;;;;76.87;72.17;;;6.30;94.70;;;;;;5033652;28;20227;-92
2023/01/09 04:30:03;;;;;;;77.30;72.60;;;6.20;94.70;;;;;;5034109;28;20183;-92
2023/01/09 04:32:29;;;;;;;80.13;75.17;;;6.20;94.70;;;;;;5034487;28;20570;-92
2023/01/09 04:34:55;;;;;;;83.57;78.23;;;6.30;94.70;;;;;;5037544;28;20165;-93
2023/01/09 04:37:21;;;;;;;82.53;77.60;;;6.30;94.70;;;;;;5035662;28;20177;-92
2023/01/09 04:39:48;;;;;;;87.00;81.60;;;6.30;94.80;;;;;;5037156;28;20200;-92
2023/01/09 04:42:13;;;;;;;89.87;84.27;;;6.30;94.70;;;;;;5034623;28;20312;-93
2023/01/09 04:44:39;;;;;;;90.50;84.80;;;6.20;94.80;;;;;;5035401;28;20251;-93
2023/01/09 04:47:05;;;;;;;79.10;74.20;;;6.20;94.90;;;;;;5034571;28;20184;-92
2023/01/09 04:49:30;;;;;;;82.93;77.77;;;6.40;94.90;;;;;;5034422;28;20181;-93
2023/01/09 04:51:56;;;;;;;81.93;76.93;;;6.30;94.90;;;;;;5034326;28;20665;-92
2023/01/09 04:54:22;;;;;;;77.93;73.43;;;6.30;94.90;;;;;;5033561;28;20201;-92
2023/01/09 04:56:48;;;;;;;77.00;72.47;;;6.30;94.90;;;;;;5033433;28;20177;-92
2023/01/09 04:59:14;;;;;;;70.13;66.03;;;6.30;94.90;;;;;;5034612;28;20214;-92
2023/01/09 05:01:39;;;;;;;62.70;59.10;;;6.30;94.70;;;;;;5033246;28;20180;-92
2023/01/09 05:04:05;;;;;;;61.90;58.40;;;6.30;94.60;;;;;;5032983;28;20235;-92
2023/01/09 05:06:31;;;;;;;55.07;51.57;;;6.30;94.50;;;;;;5033199;28;20172;-92
2023/01/09 05:08:57;;;;;;;56.23;52.90;;;6.30;94.40;;;;;;5033296;28;20537;-93
2023/01/09 05:11:24;;;;;;;54.93;51.60;;;6.40;94.30;;;;;;5033491;28;20185;-92
2023/01/09 05:13:50;;;;;;;52.50;49.50;;;6.40;94.30;;;;;;5033153;28;20200;-92
2023/01/09 05:16:17;;;;;;;57.23;53.63;;;6.30;94.30;;;;;;5033120;28;20215;-92
2023/01/09 05:18:42;;;;;;;56.17;52.93;;;6.30;94.30;;;;;;5032648;28;20299;-92
2023/01/09 05:21:08;;;;;;;60.27;56.67;;;6.30;94.30;;;;;;5032606;28;20653;-92
2023/01/09 05:23:34;;;;;;;55.80;52.60;;;6.30;94.40;;;;;;5032799;28;20200;-92
2023/01/09 05:25:59;;;;;;;58.83;55.43;;;6.30;94.40;;;;;;5033008;28;20181;-92
2023/01/09 05:28:25;;;;;;;58.37;54.90;;;6.30;94.40;;;;;;5032410;28;20189;-92
2023/01/09 05:30:51;;;;;;;61.03;57.53;;;6.30;94.50;;;;;;5032262;28;20216;-92
2023/01/09 05:33:16;;;;;;;66.37;62.50;;;6.30;94.50;;;;;;5032776;28;20224;-92
2023/01/09 05:35:42;;;;;;;66.43;62.33;;;6.30;94.60;;;;;;5034281;28;20211;-92
2023/01/09 05:38:07;;;;;;;68.37;64.00;;;6.30;94.60;;;;;;5036270;28;20638;-92
2023/01/09 05:40:33;;;;;;;71.20;67.17;;;6.30;94.70;;;;;;5036637;28;20627;-92
2023/01/09 05:42:58;;;;;;;76.90;72.40;;;6.30;94.70;;;;;;5036526;28;20207;-92
2023/01/09 05:45:25;;;;;;;75.47;71.13;;;6.20;94.70;;;;;;5036634;28;20180;-92
2023/01/09 05:47:51;;;;;;;75.37;70.97;;;6.20;94.80;;;;;;5036739;28;20649;-92
2023/01/09 05:50:17;;;;;;;79.47;74.77;;;6.20;94.80;;;;;;5036241;28;20177;-92
2023/01/09 05:52:42;;;;;;;74.83;70.60;;;6.20;94.80;;;;;;5036452;28;20247;-92
2023/01/09 05:55:09;;;;;;;80.20;75.50;;;6.20;94.80;;;;;;5036955;28;20180;-92
2023/01/09 05:57:35;;;;;;;84.83;79.97;;;6.20;94.90;;;;;;5038456;28;20534;-92
2023/01/09 06:00:01;;;;;;;83.40;78.60;;;6.20;94.90;;;;;;5037581;28;20204;-92
2023/01/09 06:02:26;;;;;;;90.57;85.53;;;6.20;94.90;;;;;;5039271;28;20213;-93
2023/01/09 06:04:52;;;;;;;94.00;88.50;;;6.20;95.00;;;;;;5038876;28;20186;-93
2023/01/09 06:07:17;;;;;;;98.20;92.43;;;6.30;95.00;;;;;;5037621;28;20177;-92
2023/01/09 06:09:43;;;;;;;95.97;90.37;;;6.30;95.00;;;;;;5036499;28;20173;-92
2023/01/09 06:12:08;;;;;;;97.17;91.73;;;6.30;95.00;;;;;;5036399;28;20176;-92
2023/01/09 06:14:35;;;;;;;103.13;97.27;;;6.30;95.00;;;;;;5035703;28;20339;-92
2023/01/09 06:17:01;;;;;;;104.03;98.03;;;6.20;95.00;;;;;;5035997;28;20169;-91
2023/01/09 06:19:26;;;;;;;109.23;102.93;;;6.20;95.00;;;;;;5035683;28;20201;-92
2023/01/09 06:21:52;;;;;;;106.30;100.20;;;6.30;95.10;;;;;;5035600;28;20264;-92
2023/01/09 06:24:18;;;;;;;111.00;104.70;;;6.30;95.10;;;;;;5034855;28;20200;-92
2023/01/09 06:26:43;;;;;;;116.30;109.70;;;6.20;95.10;;;;;;5035183;28;20386;-92
2023/01/09 06:29:09;;;;;;;116.57;109.77;;;6.20;95.10;;;;;;5035130;28;20198;-92
2023/01/09 06:31:35;;;;;;;117.10;110.50;;;6.20;95.10;;;;;;5035082;28;20620;-92
2023/01/09 06:34:00;;;;;;;121.83;114.93;;;6.20;95.10;;;;;;5036146;28;20200;-92
2023/01/09 06:36:26;;;;;;;123.90;116.80;;;6.20;95.10;;;;;;5035064;28;20176;-92
2023/01/09 06:38:51;;;;;;;124.90;117.83;;;6.10;95.10;;;;;;5035369;28;20208;-92
2023/01/09 06:41:17;;;;;;;127.17;119.97;;;6.20;95.10;;;;;;5034845;28;20176;-92
2023/01/09 06:43:42;;;;;;;129.77;122.30;;;6.10;95.20;;;;;;5034609;28;20219;-92
2023/01/09 06:46:08;;;;;;;132.07;124.47;;;6.10;95.10;;;;;;5034320;28;20188;-91
2023/01/09 06:48:34;;;;;;;128.40;120.93;;;6.10;95.20;;;;;;5034438;28;20189;-92
2023/01/09 06:51:00;;;;;;;133.20;125.70;;;6.10;95.20;;;;;;5034756;28;20192;-92
2023/01/09 06:53:26;;;;;;;137.63;129.73;;;6.00;95.10;;;;;;5034745;28;20201;-92
2023/01/09 06:55:52;;;;;;;140.07;132.07;;;5.90;95.10;;;;;;5034685;28;20192;-93
2023/01/09 07:00:48;;;;;;;126.87;119.63;;;5.90;95.20;;;;;;4995038;28;20218;-93
2023/01/09 07:03:18;;;;;;;122.33;115.30;;;5.90;95.30;;;;;;4994924;28;20190;-93
2023/01/09 07:05:45;;;;;;;107.93;101.67;;;5.90;95.40;;;;;;4994551;28;20705;-92
2023/01/09 07:08:11;;;;;;;105.00;98.90;;;5.90;95.50;;;;;;4994646;28;20185;-93
2023/01/09 07:10:36;;;;;;;92.80;87.20;;;5.90;95.50;;;;;;4994560;28;20182;-92
2023/01/09 07:13:02;;;;;;;96.17;90.30;;;5.90;95.60;;;;;;4994513;28;20205;-92
2023/01/09 07:15:28;;;;;;;101.03;94.93;;;5.90;95.60;;;;;;4994472;28;20178;-92
2023/01/09 07:17:54;;;;;;;93.73;88.03;;;5.90;95.70;;;;;;4994726;28;20188;-92
2023/01/09 07:20:19;;;;;;;96.67;90.70;;;5.90;95.60;;;;;;4994648;28;20648;-92
2023/01/09 07:22:46;;;;;;;93.67;87.87;;;5.90;95.70;;;;;;4994535;28;20197;-93
2023/01/09 07:25:12;;;;;;;89.93;84.37;;;5.90;95.70;;;;;;4994463;28;20170;-92
2023/01/09 07:27:38;;;;;;;92.27;86.53;;;6.00;95.70;;;;;;4999413;28;20166;-91
2023/01/09 07:30:05;;;;;;;89.87;84.17;;;5.80;95.60;;;;;;4994283;28;20182;-91
2023/01/09 07:32:31;;;;;;;99.60;93.50;;;5.90;95.60;;;;;;4994163;28;20345;-92
2023/01/09 07:34:57;;;;;;;98.43;92.27;;;5.90;95.60;;;;;;4994282;28;20174;-92
2023/01/09 07:37:23;;;;;;;92.87;86.97;;;5.90;95.60;;;;;;4994117;28;20185;-90
2023/01/09 07:39:48;;;;;;;96.40;90.30;;;5.90;95.60;;;;;;4994169;28;20201;-91
2023/01/09 07:42:14;;;;;;;95.30;89.03;;;5.80;95.60;;;;;;4993996;28;20170;-91
2023/01/09 07:44:40;;;;;;;92.70;86.60;;;5.90;95.60;;;;;;4993938;28;20606;-92
2023/01/09 07:47:06;;;;;;;91.67;85.87;;;5.90;95.50;;;;;;4993860;28;20284;-90
2023/01/09 07:49:31;;;;;;;90.03;84.07;;;5.90;95.50;;;;;;4994025;28;20181;-91
2023/01/09 07:51:57;;;;;;;91.43;85.43;;;5.90;95.50;;;;;;4993903;28;20648;-91
2023/01/09 07:54:23;;;;;;;89.87;83.30;;;6.00;95.50;;;;;;4998695;28;20198;-92
2023/01/09 07:56:48;;;;;;;86.03;80.07;;;6.00;95.30;;;;;;4993849;28;20178;-92
2023/01/09 08:01:49;;;;;;;83.27;77.93;;;6.00;95.20;;;;;;5113077;22;20233;-90
2023/01/09 08:04:23;;;;;;;85.57;80.03;;;6.00;95.10;;;;;;5118260;23;20225;-95
2023/01/09 08:06:49;;;;;;;84.33;78.70;;;6.00;95.00;;;;;;4997980;28;20544;-92
2023/01/09 08:09:14;;;;;;;88.10;81.80;;;5.90;95.00;;;;;;4994519;28;20182;-93
2023/01/09 08:11:43;;;;;;;89.50;83.60;;;5.90;95.00;;;;;;4993820;28;20215;-92
2023/01/09 08:14:08;;;;;;;87.77;81.40;;;5.90;95.00;;;;;;4993615;28;20206;-93
2023/01/09 08:16:34;;;;;;;85.53;79.57;;;5.80;94.90;;;;;;4994515;28;20186;-93
2023/01/09 08:19:00;;;;;;;86.17;80.20;;;5.80;94.90;;;;;;4994339;28;20190;-93
2023/01/09 08:21:25;;;;;;;86.50;80.50;;;5.70;94.90;;;;;;4993695;28;20520;-92
2023/01/09 08:23:51;;;;;;;82.33;76.73;;;5.80;95.00;;;;;;4993412;28;20194;-93
2023/01/09 08:26:18;;;;;;;86.00;79.80;;;5.70;94.90;;;;;;4993259;28;20185;-93
2023/01/09 08:28:44;;;;;;;83.10;76.93;;;5.70;94.90;;;;;;4993138;28;20269;-93
2023/01/09 08:31:09;;;;;;;83.57;77.70;;;5.60;94.90;;;;;;4993314;28;20217;-92
2023/01/09 08:33:35;;;;;;;84.53;78.47;;;5.60;94.90;;;;;;4993090;28;20222;-93
2023/01/09 08:36:01;;;;;;;80.07;74.73;;;5.70;95.00;;;;;;4993467;28;20187;-93
2023/01/09 08:38:26;;;;;;;82.47;76.20;;;5.60;94.90;;;;;;4994037;28;20244;-93
2023/01/09 08:40:52;;;;;;;76.43;70.73;;;5.60;94.90;;;;;;4993320;28;20212;-94
2023/01/09 08:48:49;;;;;;;77.20;72.20;;;5.60;94.90;;;;;;4995791;28;20643;-92
2023/01/09 08:51:14;;;;;;;76.70;71.10;;;5.60;94.80;;;;;;4993305;28;20714;-93
2023/01/09 08:53:40;;;;;;;76.43;71.03;;;5.60;94.80;;;;;;4992833;28;20296;-92
2023/01/09 08:56:06;;;;;;;70.07;65.03;;;5.70;94.80;;;;;;4992944;28;20243;-92
2023/01/09 08:58:32;;;;;;;69.37;64.37;;;5.70;94.70;;;;;;4992732;28;20201;-93
2023/01/09 09:00:57;;;;;;;73.23;68.03;;;5.70;94.60;;;;;;4992864;28;20183;-93
2023/01/09 09:03:23;;;;;;;68.40;63.60;;;5.80;94.60;;;;;;4992870;28;20197;-92
2023/01/09 09:05:49;;;;;;;72.53;67.53;;;5.80;94.50;;;;;;4993260;28;20519;-93
2023/01/09 09:08:15;;;;;;;72.80;67.50;;;5.80;94.40;;;;;;4993487;28;20231;-92
2023/01/09 09:10:41;;;;;;;63.63;59.33;;;5.80;94.40;;;;;;4996740;28;20177;-91
2023/01/09 09:13:06;;;;;;;65.37;60.83;;;5.70;94.30;;;;;;4998660;28;20197;-92
2023/01/09 09:15:33;;;;;;;66.53;62.23;;;5.80;94.30;;;;;;4998041;28;20178;-91
2023/01/09 09:18:05;;;;;;;69.00;63.80;;;5.80;94.40;;;;;;4998860;28;20211;-92
2023/01/09 09:20:37;;;;;;;65.17;60.13;;;5.80;94.20;;;;;;4996652;28;20181;-92
2023/01/09 09:23:03;;;;;;;65.43;60.57;;;5.90;94.20;;;;;;4996640;28;20194;-92
2023/01/09 09:25:29;;;;;;;62.80;58.40;;;5.90;94.20;;;;;;4996688;28;20659;-92
2023/01/09 09:27:55;;;;;;;58.97;54.17;;;6.00;94.20;;;;;;4996432;28;20188;-92
2023/01/09 09:30:22;;;;;;;66.73;61.97;;;6.00;94.10;;;;;;4996836;28;20189;-92
2023/01/09 09:32:48;;;;;;;63.23;58.43;;;6.00;94.10;;;;;;4996362;28;20559;-92
2023/01/09 09:35:16;;;;;;;60.50;56.03;;;6.00;94.00;;;;;;4997028;28;20184;-91
2023/01/09 09:37:42;;;;;;;71.00;64.83;;;6.00;93.90;;;;;;4997492;28;20177;-91
2023/01/09 09:40:33;;;;;;;76.50;69.80;;;6.00;93.70;;;;;;4996476;28;20348;-92
2023/01/09 09:46:21;;;;;;;65.73;60.10;;;6.10;93.90;;;;;;4997503;28;20536;-91
2023/01/09 09:48:58;;;;;;;72.70;66.43;;;6.00;93.70;;;;;;4996238;28;20181;-92
2023/01/09 09:51:34;;;;;;;74.73;68.30;;;6.00;93.70;;;;;;4996781;28;20181;-92
2023/01/09 09:54:06;;;;;;;70.10;64.23;;;6.00;93.90;;;;;;4996082;28;20293;-91
2023/01/09 09:56:40;;;;;;;75.30;68.53;;;6.00;93.80;;;;;;4997184;28;20233;-92
2023/01/09 09:59:14;;;;;;;72.40;65.83;;;6.00;93.70;;;;;;4996113;28;20201;-91
2023/01/09 10:01:49;;;;;;;73.93;67.33;;;6.10;93.70;;;;;;4995924;28;20655;-92
2023/01/09 10:04:19;;;;;;;58.33;52.90;;;6.00;93.60;;;;;;4997345;28;20209;-92
2023/01/09 10:06:50;;;;;;;60.43;55.03;;;6.00;93.60;;;;;;4998193;28;20174;-92
2023/01/09 10:09:53;;;;;;;66.50;60.20;;;6.00;93.50;;;;;;4996646;28;20208;-92
2023/01/09 10:12:37;;;;;;;66.40;60.37;;;6.00;93.50;;;;;;4997751;28;20648;-92
2023/01/09 10:15:17;;;;;;;63.73;57.77;;;5.90;93.50;;;;;;4995936;28;20628;-92
2023/01/09 10:18:12;;;;;;;58.43;53.20;;;6.00;93.50;;;;;;4996175;28;20631;-92
2023/01/09 10:21:02;;;;;;;64.90;58.63;;;6.00;93.40;;;;;;4995117;28;20197;-92
2023/01/09 10:23:36;;;;;;;57.27;51.77;;;6.00;93.20;;;;;;4995648;28;20233;-92
2023/01/09 10:26:26;;;;;;;64.17;57.93;;;6.00;93.20;;;;;;4995613;28;20171;-92
2023/01/09 10:28:55;;;;;;;67.03;60.70;;;6.00;93.30;;;;;;4995828;28;20190;-92
2023/01/09 10:31:48;;;;;;;71.97;64.87;;;6.10;93.30;;;;;;4996741;28;20553;-93
2023/01/09 10:34:24;;;;;;;73.13;66.50;;;6.10;93.50;;;;;;4999229;28;20213;-92
2023/01/09 10:37:08;;;;;;;71.10;64.27;;;6.10;93.60;;;;;;4997564;28;20174;-93
2023/01/09 10:39:51;;;;;;;72.77;65.40;;;6.10;93.50;;;;;;4995031;28;20228;-92
2023/01/09 10:42:30;;;;;;;67.90;60.97;;;6.10;93.40;;;;;;4995809;28;20233;-93
2023/01/09 10:45:05;;;;;;;66.50;59.87;;;6.10;93.30;;;;;;4996214;28;20166;-93
2023/01/09 10:47:37;;;;;;;60.97;55.03;;;6.10;93.10;;;;;;4995838;28;20320;-91
2023/01/09 10:50:24;;;;;;;57.07;51.30;;;6.20;92.80;;;;;;4998761;28;20636;-92
2023/01/09 10:52:52;;;;;;;46.90;42.63;;;6.20;92.30;;;;;;4995358;28;20209;-92
2023/01/09 10:55:43;;;;;;;47.30;42.60;;;6.20;92.20;;;;;;4995219;28;20182;-92
2023/01/09 10:58:18;;;;;;;47.23;42.27;;;6.20;92.20;;;;;;4995010;28;20257;-93
2023/01/09 11:00:45;;;;;;;55.67;48.50;;;6.20;92.20;;;;;;4995531;28;20162;-91
2023/01/09 11:03:21;;;;;;;47.17;42.57;;;6.30;92.20;;;;;;5001286;28;20225;-91
2023/01/09 11:05:57;;;;;;;43.93;39.63;;;6.30;92.20;;;;;;4995844;28;20197;-90
2023/01/09 11:08:30;;;;;;;42.57;38.17;;;6.30;92.10;;;;;;4996718;28;20564;-91
2023/01/09 11:10:59;;;;;;;41.17;37.07;;;6.40;92.10;;;;;;4995486;28;20176;-92
2023/01/09 11:13:31;;;;;;;39.83;36.40;;;6.40;91.90;;;;;;4995572;28;20266;-91
2023/01/09 11:16:08;;;;;;;38.50;34.80;;;6.50;91.80;;;;;;4994818;28;20178;-92
2023/01/09 11:18:37;;;;;;;40.37;36.67;;;6.50;91.70;;;;;;4995020;28;20643;-91
2023/01/09 11:21:28;;;;;;;43.20;39.00;;;6.60;91.70;;;;;;4995175;28;20174;-91
2023/01/09 11:23:55;;;;;;;38.83;35.43;;;6.90;91.90;;;;;;4995021;28;20209;-91
2023/01/09 11:26:26;;;;;;;35.90;32.67;;;7.10;91.60;;;;;;4996492;28;20233;-90
2023/01/09 11:29:08;;;;;;;35.17;30.07;;;7.10;90.80;;;;;;4995537;28;20734;-90
2023/01/09 11:31:34;;;;;;;31.10;28.40;;;7.00;90.40;;;;;;4994963;28;20632;-91
2023/01/09 11:34:00;;;;;;;33.27;29.17;;;6.90;90.40;;;;;;4993530;28;20260;-90
2023/01/09 11:36:26;;;;;;;29.40;26.50;;;6.80;90.20;;;;;;4994720;28;20174;-91
2023/01/09 11:38:54;;;;;;;30.83;27.67;;;6.80;90.00;;;;;;4996097;28;20201;-90
2023/01/09 11:41:23;;;;;;;31.73;28.23;;;7.00;90.40;;;;;;4995047;28;20544;-91
2023/01/09 11:43:54;;;;;;;30.87;27.93;;;7.00;90.40;;;;;;4994722;28;20194;-90
2023/01/09 11:46:36;;;;;;;31.23;27.43;;;7.00;90.40;;;;;;4995508;28;20178;-90
2023/01/09 11:49:04;;;;;;;28.90;26.03;;;7.00;90.30;;;;;;4994516;28;20178;-91
2023/01/09 11:51:34;;;;;;;30.07;26.93;;;7.00;90.30;;;;;;4994357;28;20221;-90
2023/01/09 11:54:18;;;;;;;29.37;26.47;;;7.00;90.40;;;;;;4994082;28;20202;-90
2023/01/09 11:56:45;;;;;;;28.77;25.90;;;7.10;90.40;;;;;;4995078;28;20170;-91
2023/01/09 11:59:12;;;;;;;27.70;24.83;;;7.20;90.50;;;;;;4996120;28;20204;-92
2023/01/09 12:02:04;;;;;;;30.20;27.13;;;7.20;90.20;;;;;;4995183;28;20185;-90
2023/01/09 12:04:41;;;;;;;25.73;23.53;;;7.20;90.20;;;;;;4994521;28;20186;-91
2023/01/09 12:07:38;;;;;;;25.80;23.17;;;7.10;90.00;;;;;;4995436;28;20224;-91
2023/01/09 12:10:22;;;;;;;26.03;23.53;;;7.10;90.10;;;;;;4995949;28;20174;-90
2023/01/09 12:13:04;;;;;;;27.73;24.97;;;7.10;90.30;;;;;;4995658;28;20198;-90
2023/01/09 12:15:38;;;;;;;27.37;24.73;;;7.20;90.40;;;;;;4996967;28;20268;-90
2023/01/09 12:18:14;;;;;;;27.67;24.83;;;7.10;90.30;;;;;;4997784;28;20165;-91
2023/01/09 12:20:59;;;;;;;29.03;26.00;;;7.20;90.50;;;;;;4997425;28;20190;-90
2023/01/09 12:23:58;;;;;;;27.27;24.70;;;7.10;90.50;;;;;;4997837;28;20197;-90
2023/01/09 12:26:35;;;;;;;26.60;24.10;;;7.10;90.50;;;;;;4997009;28;20540;-89
2023/01/09 12:29:13;;;;;;;32.23;24.97;;;7.10;90.30;;;;;;4995543;28;20228;-88
2023/01/09 12:32:12;;;;;;;25.67;23.43;;;7.10;90.50;;;;;;4994850;28;20180;-89
2023/01/09 12:35:04;;;;;;;27.17;24.47;;;7.10;90.70;;;;;;4995883;28;20165;-90
2023/01/09 12:37:50;;;;;;;26.17;23.67;;;7.20;90.80;;;;;;4996673;28;20162;-89
2023/01/09 12:40:16;;;;;;;25.93;23.27;;;7.10;90.40;;;;;;4994431;28;20288;-89
2023/01/09 12:43:14;;;;;;;26.80;23.70;;;7.20;90.60;;;;;;4995758;28;20214;-89
2023/01/09 12:45:47;;;;;;;28.13;25.20;;;7.20;90.70;;;;;;4995841;28;20165;-90
2023/01/09 12:48:45;;;;;;;27.07;24.37;;;7.20;90.80;;;;;;4996916;28;20224;-89
2023/01/09 12:51:36;;;;;;;27.97;25.00;;;7.20;90.80;;;;;;4995944;28;20162;-89
2023/01/09 12:54:13;;;;;;;34.00;26.63;;;7.30;90.90;;;;;;4997419;28;20293;-89
2023/01/09 12:56:49;;;;;;;28.00;25.20;;;7.30;90.90;;;;;;4997389;28;20176;-90
2023/01/09 12:59:39;;;;;;;29.17;26.23;;;7.20;90.80;;;;;;4995543;28;20201;-90
2023/01/09 13:02:31;;;;;;;30.07;27.37;;;7.30;90.90;;;;;;4996465;28;20182;-91
2023/01/09 13:05:09;;;;;;;30.90;27.97;;;7.30;91.00;;;;;;4995579;28;20285;-90
2023/01/09 13:07:41;;;;;;;30.30;27.27;;;7.30;91.10;;;;;;4995082;28;20655;-90
2023/01/09 13:10:26;;;;;;;32.43;29.73;;;7.30;91.10;;;;;;4995246;28;20206;-89